createdAt,value
2022-12-23T00:01:02.285Z,1.64
2022-12-23T00:05:01.687Z,1.56
2022-12-23T00:09:01.645Z,1.53
2022-12-23T00:13:20.318Z,1.49
2022-12-23T00:17:23.275Z,1.45
2022-12-23T00:21:23.601Z,1.41
2022-12-23T00:25:40.412Z,1.38
2022-12-23T00:29:40.336Z,1.37
2022-12-23T00:33:42.508Z,1.39
2022-12-23T00:37:41.909Z,1.42
2022-12-23T00:42:04.378Z,1.43
2022-12-23T00:45:19.376Z,1.44
2022-12-23T00:59:52.174Z,1.51
2022-12-23T01:03:10.500Z,1.53
2022-12-23T01:07:09.984Z,1.54
2022-12-23T01:11:11.009Z,1.54
2022-12-23T01:15:10.928Z,1.53
2022-12-23T01:19:10.618Z,1.55
2022-12-23T01:23:09.824Z,1.56
2022-12-23T01:27:09.014Z,1.59
2022-12-23T01:31:09.781Z,1.61
2022-12-23T01:35:09.229Z,1.59
2022-12-23T01:39:08.314Z,1.58
2022-12-23T01:43:22.618Z,1.56
2022-12-23T01:47:34.594Z,1.55
2022-12-23T01:51:33.319Z,1.55
2022-12-23T01:55:35.835Z,1.55
2022-12-23T01:59:54.613Z,1.56
2022-12-23T02:03:56.153Z,1.61
2022-12-23T02:08:14.899Z,1.63
2022-12-23T02:12:33.323Z,1.63
2022-12-23T02:16:50.584Z,1.65
2022-12-23T02:20:52.856Z,1.64
2022-12-23T02:24:57.819Z,1.61
2022-12-23T02:29:13.775Z,1.59
2022-12-23T02:33:31.478Z,1.59
2022-12-23T02:37:57.103Z,1.64
2022-12-23T02:42:12.003Z,1.73
2022-12-23T02:46:11.415Z,1.85
2022-12-23T02:50:29.038Z,1.85
2022-12-23T02:54:26.258Z,1.85
2022-12-23T02:57:44.294Z,1.84
2022-12-23T03:02:02.722Z,1.83
2022-12-23T03:05:27.805Z,1.80
2022-12-23T03:09:27.752Z,1.75
2022-12-23T03:13:33.062Z,1.72
2022-12-23T03:17:54.350Z,1.74
2022-12-23T03:21:14.959Z,1.74
2022-12-23T03:25:17.580Z,1.74
2022-12-23T03:29:24.571Z,1.73
2022-12-23T03:33:38.173Z,1.74
2022-12-23T03:37:39.152Z,1.71
2022-12-23T03:41:44.762Z,1.69
2022-12-23T03:45:59.621Z,1.66
2022-12-23T03:50:02.994Z,1.69
2022-12-23T03:54:25.703Z,1.71
2022-12-23T03:57:58.913Z,1.70
2022-12-23T04:02:24.423Z,1.67
2022-12-23T04:05:40.775Z,1.68
2022-12-23T04:09:40.893Z,1.66
2022-12-23T04:13:40.683Z,1.67
2022-12-23T04:17:40.118Z,1.71
2022-12-23T04:21:39.934Z,1.76
2022-12-23T04:25:38.950Z,1.75
2022-12-23T04:29:39.056Z,1.75
2022-12-23T04:33:52.062Z,1.76
2022-12-23T04:37:51.071Z,1.76
2022-12-23T04:41:50.040Z,1.81
2022-12-23T04:45:52.365Z,1.86
2022-12-23T04:49:51.803Z,1.85
2022-12-23T04:54:09.836Z,1.85
2022-12-23T04:57:28.623Z,1.87
2022-12-23T05:01:29.266Z,1.82
2022-12-23T05:05:28.677Z,1.76
2022-12-23T05:09:28.114Z,1.71
2022-12-23T05:13:27.134Z,1.69
2022-12-23T05:17:40.195Z,1.67
2022-12-23T05:21:40.027Z,1.69
2022-12-23T05:25:40.075Z,1.70
2022-12-23T05:29:39.592Z,1.72
2022-12-23T05:33:39.666Z,1.78
2022-12-23T05:37:38.571Z,1.80
2022-12-23T05:41:38.079Z,1.80
2022-12-23T05:45:38.260Z,1.77
2022-12-23T05:49:37.389Z,1.72
2022-12-23T05:53:36.592Z,1.69
2022-12-23T05:57:36.643Z,1.70
2022-12-23T06:01:36.321Z,1.70
2022-12-23T06:05:37.916Z,1.71
2022-12-23T06:09:50.595Z,1.71
2022-12-23T06:13:50.183Z,1.71
2022-12-23T06:17:49.654Z,1.69
2022-12-23T06:21:48.987Z,1.69
2022-12-23T06:25:48.153Z,1.69
2022-12-23T06:29:48.191Z,1.69
2022-12-23T06:33:47.352Z,1.67
2022-12-23T06:38:10.274Z,1.70
2022-12-23T06:41:24.175Z,1.76
2022-12-23T06:45:45.456Z,1.91
2022-12-23T06:49:00.601Z,1.92
2022-12-23T06:53:18.868Z,1.88
2022-12-23T06:56:37.382Z,1.86
2022-12-23T07:00:36.738Z,1.81
2022-12-23T07:04:35.573Z,1.81
2022-12-23T07:08:53.658Z,1.74
2022-12-23T07:12:31.087Z,1.72
2022-12-23T07:15:50.260Z,1.69
2022-12-23T07:19:49.801Z,1.69
2022-12-23T07:23:49.645Z,1.69
2022-12-23T07:27:52.840Z,1.76
2022-12-23T07:32:11.309Z,1.78
2022-12-23T07:35:30.033Z,1.79
2022-12-23T07:39:29.400Z,1.79
2022-12-23T07:43:47.454Z,1.80
2022-12-23T07:47:06.333Z,1.81
2022-12-23T07:51:24.143Z,1.79
2022-12-23T07:54:43.741Z,1.82
2022-12-23T07:58:20.616Z,1.84
2022-12-23T08:02:25.507Z,1.87
2022-12-23T08:06:02.155Z,1.97
2022-12-23T08:10:01.953Z,2.00
2022-12-23T08:14:01.471Z,2.00
2022-12-23T08:18:01.025Z,2.07
2022-12-23T08:22:18.770Z,2.14
2022-12-23T08:25:37.994Z,2.15
2022-12-23T08:29:36.830Z,2.18
2022-12-23T08:33:37.043Z,2.17
2022-12-23T08:37:36.357Z,2.27
2022-12-23T08:41:55.653Z,2.42
2022-12-23T08:45:13.362Z,2.40
2022-12-23T08:49:26.284Z,2.35
2022-12-23T08:53:25.131Z,2.31
2022-12-23T08:57:38.032Z,2.25
2022-12-23T09:01:50.914Z,2.22
2022-12-23T09:05:50.607Z,2.17
2022-12-23T09:09:49.937Z,2.14
2022-12-23T09:14:21.676Z,2.12
2022-12-23T09:17:40.535Z,2.15
2022-12-23T09:21:39.447Z,2.17
2022-12-23T09:26:16.506Z,2.20
2022-12-23T09:29:30.112Z,2.26
2022-12-23T09:33:29.477Z,2.25
2022-12-23T09:37:47.415Z,2.19
2022-12-23T09:41:15.218Z,2.22
2022-12-23T09:45:14.293Z,2.23
2022-12-23T09:53:40.263Z,2.36
2022-12-23T09:57:50.296Z,2.41
2022-12-23T10:01:59.509Z,2.42
2022-12-23T10:06:18.534Z,2.44
2022-12-23T10:10:23.012Z,2.46
2022-12-23T10:14:25.586Z,2.48
2022-12-23T10:18:28.192Z,2.48
2022-12-23T10:22:43.341Z,2.46
2022-12-23T10:27:00.816Z,2.42
2022-12-23T10:34:43.336Z,2.40
2022-12-23T10:38:45.575Z,2.38
2022-12-23T10:42:44.616Z,2.30
2022-12-23T10:47:13.582Z,2.24
2022-12-23T10:51:22.333Z,2.19
2022-12-23T10:55:33.786Z,2.13
2022-12-23T10:59:35.438Z,2.11
2022-12-23T11:03:41.482Z,2.09
2022-12-23T11:12:06.916Z,2.03
2022-12-23T11:16:12.376Z,2.05
2022-12-23T11:20:20.429Z,2.02
2022-12-23T11:24:21.121Z,1.99
2022-12-23T11:28:22.375Z,1.98
2022-12-23T11:32:26.026Z,1.99
2022-12-23T11:36:54.702Z,1.96
2022-12-23T11:40:07.675Z,1.96
2022-12-23T11:44:12.239Z,1.95
2022-12-23T11:48:30.955Z,1.96
2022-12-23T11:52:31.458Z,1.98
2022-12-23T11:56:39.826Z,1.98
2022-12-23T12:00:41.881Z,1.94
2022-12-23T12:04:43.442Z,1.90
2022-12-23T12:08:43.687Z,1.89
2022-12-23T12:12:43.243Z,1.89
2022-12-23T12:16:54.365Z,1.92
2022-12-23T12:20:55.841Z,1.92
2022-12-23T12:24:57.183Z,1.92
2022-12-23T12:29:15.280Z,1.93
2022-12-23T12:33:19.555Z,1.91
2022-12-23T12:37:23.006Z,1.91
2022-12-23T12:41:22.409Z,1.89
2022-12-23T12:45:22.965Z,1.91
2022-12-23T12:49:42.173Z,1.90
2022-12-23T12:54:05.680Z,1.93
2022-12-23T12:58:08.362Z,1.98
2022-12-23T13:02:40.231Z,1.95
2022-12-23T13:06:58.881Z,1.92
2022-12-23T13:10:57.918Z,1.88
2022-12-23T13:15:10.832Z,1.92
2022-12-23T13:19:28.924Z,1.98
2022-12-23T13:23:47.450Z,2.01
2022-12-23T13:28:13.023Z,2.01
2022-12-23T13:32:14.920Z,2.01
2022-12-23T13:36:53.759Z,2.01
2022-12-23T13:39:54.534Z,2.00
2022-12-23T13:44:06.566Z,1.95
2022-12-23T13:48:24.566Z,1.89
2022-12-23T13:52:43.921Z,1.83
2022-12-23T17:44:49.456Z,1.31
2022-12-23T17:48:49.118Z,1.27
2022-12-23T17:53:02.263Z,1.24
2022-12-23T17:57:01.406Z,1.23
2022-12-23T18:01:01.117Z,1.21
2022-12-23T18:05:02.482Z,1.18
2022-12-23T18:09:01.454Z,1.18
2022-12-23T18:13:02.257Z,1.20
2022-12-23T18:17:01.648Z,1.20
2022-12-23T18:21:00.866Z,1.21
2022-12-23T18:25:00.293Z,1.21
2022-12-23T18:28:59.641Z,1.19
2022-12-23T18:32:59.262Z,1.20
2022-12-23T18:36:59.301Z,1.22
2022-12-23T18:40:59.113Z,1.26
2022-12-23T18:44:58.989Z,1.28
2022-12-23T18:48:58.890Z,1.26
2022-12-23T18:53:25.137Z,1.25
2022-12-23T18:57:24.443Z,1.22
2022-12-23T19:01:23.535Z,1.18
2022-12-23T19:05:30.373Z,1.19
2022-12-23T19:09:29.822Z,1.19
2022-12-23T19:13:42.966Z,1.15
2022-12-23T19:17:42.539Z,1.07
2022-12-23T19:21:41.847Z,0.91
2022-12-23T19:25:55.619Z,0.78
2022-12-23T19:29:55.221Z,0.74
2022-12-23T19:33:54.620Z,0.73
2022-12-23T19:38:08.325Z,0.70
2022-12-23T19:42:08.404Z,0.68
2022-12-23T19:46:08.899Z,0.67
2022-12-23T19:50:08.762Z,0.64
2022-12-23T19:54:08.239Z,0.63
2022-12-23T19:58:07.524Z,0.58
2022-12-23T20:02:07.059Z,0.54
2022-12-23T20:06:22.259Z,0.52
2022-12-23T20:10:21.850Z,0.51
2022-12-23T20:14:22.008Z,0.52
2022-12-23T20:18:23.773Z,0.50
2022-12-23T20:21:59.492Z,0.49
2022-12-23T20:25:59.944Z,0.47
2022-12-23T20:29:59.663Z,0.47
2022-12-23T20:33:59.272Z,0.46
2022-12-23T20:37:59.094Z,0.43
2022-12-23T20:41:58.160Z,0.42
2022-12-23T20:45:57.205Z,0.43
2022-12-23T20:49:56.659Z,0.46
2022-12-23T20:53:59.976Z,0.49
2022-12-23T20:58:19.469Z,0.52
2022-12-23T21:02:18.626Z,0.53
2022-12-23T21:06:18.766Z,0.55
2022-12-23T21:10:20.974Z,0.71
2022-12-23T21:14:01.144Z,0.81
2022-12-23T21:18:04.138Z,0.88
2022-12-23T21:22:04.060Z,0.86
2022-12-23T21:26:18.601Z,0.85
2022-12-23T21:30:18.247Z,0.88
2022-12-23T21:34:18.086Z,0.86
2022-12-23T21:38:18.868Z,0.81
2022-12-23T21:41:55.473Z,0.77
2022-12-23T21:46:11.928Z,0.74
2022-12-23T21:50:11.834Z,0.71
2022-12-23T21:54:12.252Z,0.69
2022-12-23T21:58:12.074Z,0.68
2022-12-23T22:02:17.736Z,0.71
2022-12-23T22:06:21.628Z,0.74
2022-12-23T22:10:20.975Z,0.78
2022-12-23T22:14:20.886Z,0.79
2022-12-23T22:18:20.005Z,0.78
2022-12-23T22:22:19.518Z,0.84
2022-12-23T22:26:25.489Z,0.93
2022-12-23T22:30:39.232Z,1.02
2022-12-23T22:34:39.132Z,1.05
2022-12-23T22:38:38.351Z,1.07
2022-12-23T22:42:37.378Z,1.08
2022-12-23T22:46:50.352Z,1.08
2022-12-23T22:50:49.581Z,1.09
2022-12-23T22:54:49.068Z,1.12
2022-12-23T22:58:48.577Z,1.15
2022-12-23T23:02:48.273Z,1.18
2022-12-23T23:06:47.866Z,1.20
2022-12-23T23:10:47.152Z,1.22
2022-12-23T23:15:00.916Z,1.23
2022-12-23T23:19:01.271Z,1.24
2022-12-23T23:23:00.819Z,1.23
2022-12-23T23:27:00.298Z,1.22
2022-12-23T23:31:31.859Z,1.23
2022-12-23T23:35:19.536Z,1.21
2022-12-23T23:39:18.973Z,1.21
2022-12-23T23:43:18.638Z,1.19
2022-12-23T23:47:18.215Z,1.17
2022-12-23T23:51:18.484Z,1.17
2022-12-23T23:55:18.082Z,1.17
2022-12-23T23:59:17.497Z,1.16
